createdAt,value
2023-02-14T00:03:13.511Z,71.74
2023-02-14T00:08:16.342Z,71.72
2023-02-14T00:13:17.842Z,71.86
2023-02-14T00:18:19.820Z,72.21
2023-02-14T00:23:21.485Z,72.06
2023-02-14T00:28:22.966Z,72.11
2023-02-14T00:33:24.449Z,72.22
2023-02-14T00:38:25.917Z,72.41
2023-02-14T00:43:27.647Z,72.57
2023-02-14T00:48:29.130Z,72.22
2023-02-14T00:53:30.633Z,72.56
2023-02-14T00:58:32.593Z,72.81
2023-02-14T01:03:34.606Z,72.70
2023-02-14T01:08:36.183Z,72.61
2023-02-14T01:13:38.252Z,72.99
2023-02-14T01:18:40.297Z,73.20
2023-02-14T01:23:43.289Z,73.41
2023-02-14T01:28:45.591Z,73.60
2023-02-14T01:33:49.410Z,73.85
2023-02-14T01:38:53.710Z,74.06
2023-02-14T01:44:28.438Z,73.96
2023-02-14T01:49:37.884Z,74.10
2023-02-14T01:54:46.451Z,73.88
2023-02-14T01:59:53.467Z,74.11
2023-02-14T02:04:56.508Z,74.80
2023-02-14T02:10:04.118Z,74.74
2023-02-14T02:15:07.094Z,74.84
2023-02-14T02:20:20.639Z,75.30
2023-02-14T02:25:34.379Z,75.55
2023-02-14T02:30:51.297Z,75.58
2023-02-14T02:36:27.729Z,75.96
2023-02-14T02:41:56.612Z,76.37
2023-02-14T02:47:28.624Z,76.50
2023-02-14T02:53:06.330Z,76.10
2023-02-14T02:58:08.044Z,76.24
2023-02-14T03:03:29.553Z,76.36
2023-02-14T03:08:31.020Z,76.61
2023-02-14T03:14:14.413Z,76.86
2023-02-14T03:19:30.766Z,76.77
2023-02-14T03:24:59.678Z,76.48
2023-02-14T03:30:04.222Z,76.48
2023-02-14T03:35:12.925Z,76.77
2023-02-14T03:40:22.711Z,76.65
2023-02-14T03:45:46.094Z,77.23
2023-02-14T03:50:52.378Z,77.17
2023-02-14T03:56:02.710Z,77.25
2023-02-14T04:01:32.828Z,77.09
2023-02-14T04:06:35.375Z,77.18
2023-02-14T04:11:38.626Z,76.80
2023-02-14T04:17:01.073Z,77.01
2023-02-14T04:22:02.569Z,77.54
2023-02-14T04:27:11.190Z,77.23
2023-02-14T04:32:15.708Z,77.46
2023-02-14T04:37:19.299Z,77.67
2023-02-14T04:42:20.829Z,77.74
2023-02-14T04:47:22.571Z,77.40
2023-02-14T04:52:24.132Z,77.33
2023-02-14T04:57:25.622Z,77.73
2023-02-14T05:02:27.348Z,77.70
2023-02-14T05:07:28.970Z,78.26
2023-02-14T05:12:30.683Z,77.84
2023-02-14T05:17:32.589Z,77.77
2023-02-14T05:22:34.368Z,78.19
2023-02-14T05:27:35.841Z,78.03
2023-02-14T05:32:37.432Z,77.58
2023-02-14T05:37:38.953Z,77.80
2023-02-14T05:42:40.723Z,78.09
2023-02-14T05:47:42.195Z,78.00
2023-02-14T05:52:43.948Z,78.12
2023-02-14T05:57:45.462Z,78.05
2023-02-14T06:02:46.936Z,78.42
2023-02-14T06:07:50.860Z,77.86
2023-02-14T06:12:53.878Z,78.18
2023-02-14T06:17:56.849Z,77.85
2023-02-14T06:22:58.862Z,78.00
2023-02-14T06:28:00.831Z,78.16
2023-02-14T06:33:03.179Z,78.22
2023-02-14T06:38:04.684Z,78.54
2023-02-14T06:43:06.304Z,78.29
2023-02-14T06:48:07.818Z,78.27
2023-02-14T06:53:09.292Z,78.33
2023-02-14T06:58:11.074Z,78.06
2023-02-14T07:03:12.926Z,78.32
2023-02-14T07:08:14.498Z,78.44
2023-02-14T07:13:16.073Z,78.18
2023-02-14T07:18:17.589Z,77.83
2023-02-14T07:23:19.235Z,77.86
2023-02-14T07:28:20.841Z,77.96
2023-02-14T07:33:22.386Z,78.12
2023-02-14T07:38:24.842Z,77.87
2023-02-14T07:43:26.685Z,77.47
2023-02-14T07:48:31.045Z,77.13
2023-02-14T07:53:34.222Z,77.30
2023-02-14T07:58:35.808Z,77.00
2023-02-14T08:03:37.306Z,77.14
2023-02-14T08:08:38.978Z,77.25
2023-02-14T08:13:40.510Z,77.07
2023-02-14T08:18:42.465Z,76.93
2023-02-14T08:23:46.063Z,76.69
2023-02-14T08:28:48.816Z,76.58
2023-02-14T08:33:50.423Z,76.23
2023-02-14T08:38:52.368Z,76.28
2023-02-14T08:43:53.905Z,76.15
2023-02-14T08:48:56.510Z,76.24
2023-02-14T08:53:58.028Z,76.31
2023-02-14T08:58:59.693Z,75.97
2023-02-14T09:04:02.003Z,76.25
2023-02-14T09:09:03.722Z,75.81
2023-02-14T09:14:05.276Z,75.51
2023-02-14T09:19:06.789Z,75.86
2023-02-14T09:24:08.321Z,75.50
2023-02-14T09:29:12.030Z,75.10
2023-02-14T09:34:13.589Z,75.28
2023-02-14T09:39:15.416Z,75.27
2023-02-14T09:44:34.788Z,75.30
2023-02-14T09:49:40.902Z,74.19
2023-02-14T09:54:47.494Z,74.27
2023-02-14T10:00:04.465Z,74.14
2023-02-14T10:05:22.162Z,73.91
2023-02-14T10:10:23.593Z,74.02
2023-02-14T10:15:34.665Z,74.49
2023-02-14T10:20:42.316Z,74.32
2023-02-14T10:25:54.646Z,73.73
2023-02-14T10:31:17.407Z,73.75
2023-02-14T10:36:47.071Z,73.34
2023-02-14T10:42:09.534Z,73.65
2023-02-14T10:47:42.043Z,74.27
2023-02-14T10:52:47.534Z,73.82
2023-02-14T10:57:53.539Z,73.34
2023-02-14T11:03:02.818Z,73.64
2023-02-14T11:08:38.036Z,74.17
2023-02-14T11:13:40.540Z,74.26
2023-02-14T11:18:42.152Z,74.50
2023-02-14T11:23:45.016Z,74.12
2023-02-14T11:29:12.660Z,73.88
2023-02-14T11:34:40.309Z,73.83
2023-02-14T11:39:41.915Z,74.22
2023-02-14T11:44:56.304Z,73.89
2023-02-14T11:50:13.137Z,74.14
2023-02-14T11:55:27.230Z,74.14
2023-02-14T12:00:31.406Z,74.09
2023-02-14T12:05:46.879Z,74.01
2023-02-14T12:11:21.182Z,73.53
2023-02-14T12:16:31.568Z,73.21
2023-02-14T12:21:39.022Z,73.27
2023-02-14T12:26:49.777Z,73.64
2023-02-14T12:31:51.921Z,73.53
2023-02-14T12:37:22.510Z,73.56
2023-02-14T12:42:39.406Z,73.76
2023-02-14T12:48:06.266Z,73.62
2023-02-14T12:53:29.381Z,73.92
2023-02-14T12:58:54.826Z,73.83
2023-02-14T13:04:21.494Z,74.28
2023-02-14T13:09:48.460Z,74.20
2023-02-14T13:15:11.063Z,73.90
2023-02-14T13:20:25.448Z,73.91
2023-02-14T13:25:34.521Z,74.07
2023-02-14T13:30:38.605Z,73.86
2023-02-14T13:35:41.353Z,73.81
2023-02-14T13:40:43.541Z,74.03
2023-02-14T13:45:53.838Z,74.05
2023-02-14T13:50:58.686Z,73.83
2023-02-14T13:56:03.793Z,74.30
2023-02-14T14:01:48.295Z,74.27
2023-02-14T14:07:04.988Z,73.96
2023-02-14T14:12:28.486Z,74.16
2023-02-14T14:17:31.882Z,74.43
2023-02-14T14:22:47.190Z,74.22
2023-02-14T14:27:51.077Z,74.18
2023-02-14T14:32:52.806Z,74.04
2023-02-14T14:37:57.195Z,74.12
2023-02-14T14:43:21.755Z,74.26
2023-02-14T14:48:33.467Z,73.99
2023-02-14T14:53:47.210Z,73.81
2023-02-14T14:58:49.545Z,74.11
2023-02-14T15:03:51.116Z,74.24
2023-02-14T15:08:52.925Z,74.37
2023-02-14T15:13:54.729Z,74.56
2023-02-14T15:19:07.347Z,74.40
2023-02-14T15:24:14.744Z,74.27
2023-02-14T15:29:34.519Z,74.28
2023-02-14T15:34:36.741Z,74.33
2023-02-14T15:39:52.313Z,74.32
2023-02-14T15:45:26.112Z,74.39
2023-02-14T15:50:34.785Z,74.22
2023-02-14T15:55:37.016Z,74.11
2023-02-14T16:00:38.547Z,74.01
2023-02-14T16:05:47.097Z,73.91
2023-02-14T16:11:05.593Z,74.44
2023-02-14T16:16:09.600Z,74.67
2023-02-14T16:21:17.064Z,74.66
2023-02-14T16:26:18.594Z,74.55
2023-02-14T16:31:20.362Z,75.17
2023-02-14T16:36:28.553Z,75.04
2023-02-14T16:41:31.519Z,75.05
2023-02-14T16:46:35.501Z,75.08
2023-02-14T16:51:37.412Z,75.17
2023-02-14T16:56:43.176Z,75.44
2023-02-14T17:01:44.823Z,75.23
2023-02-14T17:06:52.140Z,75.50
2023-02-14T17:11:58.378Z,74.97
2023-02-14T17:17:01.020Z,74.99
2023-02-14T17:22:04.603Z,75.42
2023-02-14T17:27:07.873Z,74.91
2023-02-14T17:32:13.769Z,75.53
2023-02-14T17:37:15.556Z,75.28
2023-02-14T17:42:17.112Z,75.31
2023-02-14T17:47:18.623Z,75.21
2023-02-14T17:52:22.058Z,75.14
2023-02-14T17:57:24.112Z,75.49
2023-02-14T18:02:25.658Z,75.44
2023-02-14T18:07:27.923Z,75.22
2023-02-14T18:12:29.794Z,75.52
2023-02-14T18:17:31.328Z,76.21
2023-02-14T18:22:33.955Z,76.33
2023-02-14T18:27:37.881Z,75.95
2023-02-14T18:32:39.935Z,75.61
2023-02-14T18:37:42.136Z,75.97
2023-02-14T18:42:43.670Z,77.04
2023-02-14T18:47:45.217Z,77.61
2023-02-14T18:52:46.797Z,77.41
2023-02-14T18:57:48.511Z,77.78
2023-02-14T19:02:50.181Z,77.92
2023-02-14T19:07:59.061Z,79.23
2023-02-14T19:13:00.911Z,78.66
2023-02-14T19:18:02.411Z,78.58
2023-02-14T19:23:03.926Z,78.37
2023-02-14T19:28:09.572Z,78.51
2023-02-14T19:33:11.554Z,78.69
2023-02-14T19:38:13.069Z,79.28
2023-02-14T19:43:14.841Z,78.62
2023-02-14T19:48:16.999Z,78.77
2023-02-14T19:53:18.504Z,77.81
2023-02-14T19:58:20.021Z,78.20
2023-02-14T20:03:21.548Z,77.88
2023-02-14T20:08:23.453Z,78.35
2023-02-14T20:13:26.488Z,78.60
2023-02-14T20:18:27.992Z,79.13
2023-02-14T20:23:29.798Z,79.62
2023-02-14T20:28:31.445Z,79.20
2023-02-14T20:33:32.997Z,79.53
2023-02-14T20:38:35.519Z,79.28
2023-02-14T20:43:38.977Z,79.30
2023-02-14T20:48:40.525Z,79.29
2023-02-14T20:53:43.566Z,78.96
2023-02-14T20:58:45.645Z,78.94
2023-02-14T21:03:50.928Z,78.58
2023-02-14T21:08:52.841Z,78.61
2023-02-14T21:13:59.470Z,78.54
2023-02-14T21:19:01.447Z,78.64
2023-02-14T21:24:12.352Z,78.60
2023-02-14T21:29:14.130Z,78.28
2023-02-14T21:34:16.498Z,78.27
2023-02-14T21:39:19.044Z,78.31
2023-02-14T21:44:39.262Z,77.98
2023-02-14T21:49:59.396Z,77.77
2023-02-14T21:55:00.915Z,78.24
2023-02-14T22:00:02.613Z,78.40
2023-02-14T22:05:05.160Z,78.22
2023-02-14T22:10:07.560Z,78.10
2023-02-14T22:15:09.676Z,78.28
2023-02-14T22:20:12.072Z,78.09
2023-02-14T22:25:13.541Z,77.70
2023-02-14T22:30:15.158Z,77.82
2023-02-14T22:35:16.801Z,78.01
2023-02-14T22:40:18.447Z,77.88
2023-02-14T22:45:20.257Z,77.60
2023-02-14T22:50:21.735Z,77.40
2023-02-14T22:55:23.245Z,77.43
2023-02-14T23:00:25.372Z,78.05
2023-02-14T23:05:26.882Z,77.82
2023-02-14T23:10:28.381Z,77.34
2023-02-14T23:15:48.697Z,77.71
2023-02-14T23:21:11.615Z,77.47
2023-02-14T23:26:13.418Z,77.31
2023-02-14T23:31:14.975Z,77.81
2023-02-14T23:36:16.635Z,78.18
2023-02-14T23:41:36.550Z,77.63
2023-02-14T23:46:38.052Z,77.92
2023-02-14T23:51:40.101Z,77.69
2023-02-14T23:56:43.315Z,77.53
